sensor_id;sensor_type;location;lat;lon;timestamp;temperature;humidity
23089;DHT22;11713;48.506;8.966;2023-08-06T00:01:01;16.00;99.90
23089;DHT22;11713;48.506;8.966;2023-08-06T00:03:27;16.00;99.90
23089;DHT22;11713;48.506;8.966;2023-08-06T00:05:52;16.00;99.90
23089;DHT22;11713;48.506;8.966;2023-08-06T00:08:18;15.90;99.90
23089;DHT22;11713;48.506;8.966;2023-08-06T00:10:44;15.90;99.90
23089;DHT22;11713;48.506;8.966;2023-08-06T00:13:10;15.80;99.90
23089;DHT22;11713;48.506;8.966;2023-08-06T00:15:35;15.80;99.90
23089;DHT22;11713;48.506;8.966;2023-08-06T00:18:01;15.80;99.90
23089;DHT22;11713;48.506;8.966;2023-08-06T00:20:27;15.70;99.90
23089;DHT22;11713;48.506;8.966;2023-08-06T00:22:53;15.70;99.90
23089;DHT22;11713;48.506;8.966;2023-08-06T00:25:18;15.70;99.90
23089;DHT22;11713;48.506;8.966;2023-08-06T00:27:45;15.60;99.90
23089;DHT22;11713;48.506;8.966;2023-08-06T00:30:11;15.50;99.90
23089;DHT22;11713;48.506;8.966;2023-08-06T00:32:37;15.50;99.90
23089;DHT22;11713;48.506;8.966;2023-08-06T00:35:02;15.40;99.90
23089;DHT22;11713;48.506;8.966;2023-08-06T00:37:29;15.20;99.90
23089;DHT22;11713;48.506;8.966;2023-08-06T00:39:55;15.20;99.90
23089;DHT22;11713;48.506;8.966;2023-08-06T00:42:21;15.20;99.90
23089;DHT22;11713;48.506;8.966;2023-08-06T00:44:48;15.30;99.90
23089;DHT22;11713;48.506;8.966;2023-08-06T00:47:14;15.20;99.90
23089;DHT22;11713;48.506;8.966;2023-08-06T00:49:40;15.20;99.90
23089;DHT22;11713;48.506;8.966;2023-08-06T00:52:07;15.20;99.90
23089;DHT22;11713;48.506;8.966;2023-08-06T00:54:36;15.10;99.90
23089;DHT22;11713;48.506;8.966;2023-08-06T00:57:02;15.10;99.90
23089;DHT22;11713;48.506;8.966;2023-08-06T00:59:30;15.00;99.90
23089;DHT22;11713;48.506;8.966;2023-08-06T01:01:56;15.00;99.90
23089;DHT22;11713;48.506;8.966;2023-08-06T01:04:23;15.00;99.90
23089;DHT22;11713;48.506;8.966;2023-08-06T01:07:00;14.90;99.90
23089;DHT22;11713;48.506;8.966;2023-08-06T01:12:14;14.90;99.90
23089;DHT22;11713;48.506;8.966;2023-08-06T01:15:14;14.90;99.90
23089;DHT22;11713;48.506;8.966;2023-08-06T01:17:41;15.00;99.90
23089;DHT22;11713;48.506;8.966;2023-08-06T01:20:07;15.00;99.90
23089;DHT22;11713;48.506;8.966;2023-08-06T01:22:33;15.00;99.90
23089;DHT22;11713;48.506;8.966;2023-08-06T01:24:59;15.00;99.90
23089;DHT22;11713;48.506;8.966;2023-08-06T01:27:44;15.00;99.90
23089;DHT22;11713;48.506;8.966;2023-08-06T01:30:32;15.00;99.90
23089;DHT22;11713;48.506;8.966;2023-08-06T01:33:04;15.00;99.90
23089;DHT22;11713;48.506;8.966;2023-08-06T01:35:34;15.00;99.90
23089;DHT22;11713;48.506;8.966;2023-08-06T01:38:01;15.00;99.90
23089;DHT22;11713;48.506;8.966;2023-08-06T01:40:30;14.90;99.90
23089;DHT22;11713;48.506;8.966;2023-08-06T01:42:56;15.00;99.90
23089;DHT22;11713;48.506;8.966;2023-08-06T01:45:22;15.00;99.90
23089;DHT22;11713;48.506;8.966;2023-08-06T01:47:49;15.00;99.90
23089;DHT22;11713;48.506;8.966;2023-08-06T01:50:15;15.00;99.90
23089;DHT22;11713;48.506;8.966;2023-08-06T01:52:40;15.00;99.90
23089;DHT22;11713;48.506;8.966;2023-08-06T01:55:06;15.00;99.90
23089;DHT22;11713;48.506;8.966;2023-08-06T01:57:32;15.00;99.90
23089;DHT22;11713;48.506;8.966;2023-08-06T01:59:58;14.90;99.90
23089;DHT22;11713;48.506;8.966;2023-08-06T02:02:24;14.80;99.90
23089;DHT22;11713;48.506;8.966;2023-08-06T02:04:50;14.70;99.90
23089;DHT22;11713;48.506;8.966;2023-08-06T02:07:15;14.60;99.90
23089;DHT22;11713;48.506;8.966;2023-08-06T02:09:41;14.60;99.90
23089;DHT22;11713;48.506;8.966;2023-08-06T02:12:07;14.60;99.90
23089;DHT22;11713;48.506;8.966;2023-08-06T02:14:34;14.50;99.90
23089;DHT22;11713;48.506;8.966;2023-08-06T02:17:00;14.50;99.90
23089;DHT22;11713;48.506;8.966;2023-08-06T02:19:27;14.50;99.90
23089;DHT22;11713;48.506;8.966;2023-08-06T02:21:53;14.50;99.90
23089;DHT22;11713;48.506;8.966;2023-08-06T02:24:19;14.50;99.90
23089;DHT22;11713;48.506;8.966;2023-08-06T02:26:45;14.60;99.90
23089;DHT22;11713;48.506;8.966;2023-08-06T02:29:12;14.60;99.90
23089;DHT22;11713;48.506;8.966;2023-08-06T02:31:37;14.60;99.90
23089;DHT22;11713;48.506;8.966;2023-08-06T02:34:05;14.70;99.90
23089;DHT22;11713;48.506;8.966;2023-08-06T02:36:31;14.70;99.90
23089;DHT22;11713;48.506;8.966;2023-08-06T02:38:58;14.70;99.90
23089;DHT22;11713;48.506;8.966;2023-08-06T02:41:24;14.70;99.90
23089;DHT22;11713;48.506;8.966;2023-08-06T02:43:50;14.70;99.90
23089;DHT22;11713;48.506;8.966;2023-08-06T02:46:16;14.70;99.90
23089;DHT22;11713;48.506;8.966;2023-08-06T02:48:42;14.80;99.90
23089;DHT22;11713;48.506;8.966;2023-08-06T02:51:07;14.80;99.90
23089;DHT22;11713;48.506;8.966;2023-08-06T02:53:33;14.80;99.90
23089;DHT22;11713;48.506;8.966;2023-08-06T02:56:03;14.80;99.90
23089;DHT22;11713;48.506;8.966;2023-08-06T02:58:56;14.80;99.90
23089;DHT22;11713;48.506;8.966;2023-08-06T03:01:33;14.80;99.90
23089;DHT22;11713;48.506;8.966;2023-08-06T03:04:06;14.90;99.90
23089;DHT22;11713;48.506;8.966;2023-08-06T03:06:37;14.90;99.90
23089;DHT22;11713;48.506;8.966;2023-08-06T03:09:03;14.90;99.90
23089;DHT22;11713;48.506;8.966;2023-08-06T03:11:29;14.90;99.90
23089;DHT22;11713;48.506;8.966;2023-08-06T03:14:00;14.90;99.90
23089;DHT22;11713;48.506;8.966;2023-08-06T03:16:27;15.00;99.90
23089;DHT22;11713;48.506;8.966;2023-08-06T03:18:53;15.00;99.90
23089;DHT22;11713;48.506;8.966;2023-08-06T03:21:20;14.90;99.90
23089;DHT22;11713;48.506;8.966;2023-08-06T03:23:49;14.90;99.90
23089;DHT22;11713;48.506;8.966;2023-08-06T03:26:17;14.90;99.90
23089;DHT22;11713;48.506;8.966;2023-08-06T03:28:44;14.90;99.90
23089;DHT22;11713;48.506;8.966;2023-08-06T03:31:10;14.90;99.90
23089;DHT22;11713;48.506;8.966;2023-08-06T03:33:40;14.90;99.90
23089;DHT22;11713;48.506;8.966;2023-08-06T03:36:11;14.90;99.90
23089;DHT22;11713;48.506;8.966;2023-08-06T03:38:37;14.90;99.90
23089;DHT22;11713;48.506;8.966;2023-08-06T03:41:06;14.90;99.90
23089;DHT22;11713;48.506;8.966;2023-08-06T03:43:32;14.90;99.90
23089;DHT22;11713;48.506;8.966;2023-08-06T03:45:58;14.90;99.90
23089;DHT22;11713;48.506;8.966;2023-08-06T03:48:24;14.90;99.90
23089;DHT22;11713;48.506;8.966;2023-08-06T03:50:50;14.90;99.90
23089;DHT22;11713;48.506;8.966;2023-08-06T03:53:18;14.90;99.90
23089;DHT22;11713;48.506;8.966;2023-08-06T03:55:44;14.80;99.90
23089;DHT22;11713;48.506;8.966;2023-08-06T03:58:10;14.80;99.90
23089;DHT22;11713;48.506;8.966;2023-08-06T04:00:36;14.70;99.90
23089;DHT22;11713;48.506;8.966;2023-08-06T04:03:02;14.70;99.90
23089;DHT22;11713;48.506;8.966;2023-08-06T04:05:31;14.60;99.90
23089;DHT22;11713;48.506;8.966;2023-08-06T04:07:58;14.60;99.90
23089;DHT22;11713;48.506;8.966;2023-08-06T04:10:23;14.60;99.90
23089;DHT22;11713;48.506;8.966;2023-08-06T04:12:49;14.50;99.90
23089;DHT22;11713;48.506;8.966;2023-08-06T04:15:15;14.50;99.90
23089;DHT22;11713;48.506;8.966;2023-08-06T04:17:41;14.50;99.90
23089;DHT22;11713;48.506;8.966;2023-08-06T04:20:07;14.40;99.90
23089;DHT22;11713;48.506;8.966;2023-08-06T04:22:33;14.40;99.90
23089;DHT22;11713;48.506;8.966;2023-08-06T04:24:59;14.40;99.90
23089;DHT22;11713;48.506;8.966;2023-08-06T04:27:25;14.40;99.90
23089;DHT22;11713;48.506;8.966;2023-08-06T04:29:51;14.40;99.90
23089;DHT22;11713;48.506;8.966;2023-08-06T04:32:17;14.40;99.90
23089;DHT22;11713;48.506;8.966;2023-08-06T04:34:48;14.40;99.90
23089;DHT22;11713;48.506;8.966;2023-08-06T04:37:14;14.40;99.90
23089;DHT22;11713;48.506;8.966;2023-08-06T04:39:40;14.40;99.90
23089;DHT22;11713;48.506;8.966;2023-08-06T04:42:06;14.40;99.90
23089;DHT22;11713;48.506;8.966;2023-08-06T04:44:32;14.40;99.90
23089;DHT22;11713;48.506;8.966;2023-08-06T04:46:58;14.40;99.90
23089;DHT22;11713;48.506;8.966;2023-08-06T04:49:25;14.50;99.90
23089;DHT22;11713;48.506;8.966;2023-08-06T04:51:50;14.50;99.90
23089;DHT22;11713;48.506;8.966;2023-08-06T04:54:16;14.50;99.90
23089;DHT22;11713;48.506;8.966;2023-08-06T04:56:42;14.60;99.90
23089;DHT22;11713;48.506;8.966;2023-08-06T04:59:08;14.60;99.90
23089;DHT22;11713;48.506;8.966;2023-08-06T05:01:33;14.60;99.90
23089;DHT22;11713;48.506;8.966;2023-08-06T05:03:59;14.60;99.90
23089;DHT22;11713;48.506;8.966;2023-08-06T05:06:25;14.60;99.90
23089;DHT22;11713;48.506;8.966;2023-08-06T05:08:51;14.60;99.90
23089;DHT22;11713;48.506;8.966;2023-08-06T05:11:17;14.50;99.90
23089;DHT22;11713;48.506;8.966;2023-08-06T05:13:42;14.60;99.90
23089;DHT22;11713;48.506;8.966;2023-08-06T05:16:08;14.60;99.90
23089;DHT22;11713;48.506;8.966;2023-08-06T05:18:34;14.60;99.90
23089;DHT22;11713;48.506;8.966;2023-08-06T05:21:00;14.60;99.90
23089;DHT22;11713;48.506;8.966;2023-08-06T05:23:26;14.60;99.90
23089;DHT22;11713;48.506;8.966;2023-08-06T05:25:51;14.70;99.90
23089;DHT22;11713;48.506;8.966;2023-08-06T05:28:17;14.70;99.90
23089;DHT22;11713;48.506;8.966;2023-08-06T05:30:43;14.70;99.90
23089;DHT22;11713;48.506;8.966;2023-08-06T05:33:09;14.70;99.90
23089;DHT22;11713;48.506;8.966;2023-08-06T05:35:35;14.70;99.90
23089;DHT22;11713;48.506;8.966;2023-08-06T05:38:01;14.70;99.90
23089;DHT22;11713;48.506;8.966;2023-08-06T05:40:27;14.70;99.90
23089;DHT22;11713;48.506;8.966;2023-08-06T05:42:55;14.70;99.90
23089;DHT22;11713;48.506;8.966;2023-08-06T05:45:21;14.70;99.90
23089;DHT22;11713;48.506;8.966;2023-08-06T05:47:50;14.70;99.90
23089;DHT22;11713;48.506;8.966;2023-08-06T05:50:16;14.70;99.90
23089;DHT22;11713;48.506;8.966;2023-08-06T05:52:42;14.70;99.90
23089;DHT22;11713;48.506;8.966;2023-08-06T05:55:08;14.70;99.90
23089;DHT22;11713;48.506;8.966;2023-08-06T05:57:34;14.70;99.90
23089;DHT22;11713;48.506;8.966;2023-08-06T06:00:00;14.80;99.90
23089;DHT22;11713;48.506;8.966;2023-08-06T06:02:26;14.80;99.90
23089;DHT22;11713;48.506;8.966;2023-08-06T06:04:52;14.80;99.90
23089;DHT22;11713;48.506;8.966;2023-08-06T06:07:18;14.80;99.90
23089;DHT22;11713;48.506;8.966;2023-08-06T06:09:44;14.90;99.90
23089;DHT22;11713;48.506;8.966;2023-08-06T06:12:10;14.90;99.90
23089;DHT22;11713;48.506;8.966;2023-08-06T06:14:35;14.90;99.90
23089;DHT22;11713;48.506;8.966;2023-08-06T06:17:01;14.90;99.90
23089;DHT22;11713;48.506;8.966;2023-08-06T06:19:27;14.90;99.90
23089;DHT22;11713;48.506;8.966;2023-08-06T06:21:53;14.90;99.90
23089;DHT22;11713;48.506;8.966;2023-08-06T06:24:19;14.90;99.90
23089;DHT22;11713;48.506;8.966;2023-08-06T06:26:45;14.90;99.90
23089;DHT22;11713;48.506;8.966;2023-08-06T06:29:10;14.80;99.90
23089;DHT22;11713;48.506;8.966;2023-08-06T06:31:36;14.80;99.90
23089;DHT22;11713;48.506;8.966;2023-08-06T06:34:02;14.80;99.90
23089;DHT22;11713;48.506;8.966;2023-08-06T06:36:28;14.70;99.90
23089;DHT22;11713;48.506;8.966;2023-08-06T06:38:54;14.70;99.90
23089;DHT22;11713;48.506;8.966;2023-08-06T06:41:19;14.70;99.90
23089;DHT22;11713;48.506;8.966;2023-08-06T06:43:45;14.70;99.90
23089;DHT22;11713;48.506;8.966;2023-08-06T06:46:11;14.70;99.90
23089;DHT22;11713;48.506;8.966;2023-08-06T06:48:37;14.70;99.90
23089;DHT22;11713;48.506;8.966;2023-08-06T06:51:03;14.70;99.90
23089;DHT22;11713;48.506;8.966;2023-08-06T06:53:28;14.70;99.90
23089;DHT22;11713;48.506;8.966;2023-08-06T06:55:55;14.70;99.90
23089;DHT22;11713;48.506;8.966;2023-08-06T06:58:21;14.80;99.90
23089;DHT22;11713;48.506;8.966;2023-08-06T07:00:48;14.80;99.90
23089;DHT22;11713;48.506;8.966;2023-08-06T07:03:17;14.80;99.90
23089;DHT22;11713;48.506;8.966;2023-08-06T07:05:44;14.80;99.90
23089;DHT22;11713;48.506;8.966;2023-08-06T07:08:10;14.80;99.90
23089;DHT22;11713;48.506;8.966;2023-08-06T07:10:36;14.70;99.90
23089;DHT22;11713;48.506;8.966;2023-08-06T07:13:02;14.70;99.90
23089;DHT22;11713;48.506;8.966;2023-08-06T07:15:27;14.60;99.90
23089;DHT22;11713;48.506;8.966;2023-08-06T07:17:53;14.50;99.90
23089;DHT22;11713;48.506;8.966;2023-08-06T07:20:19;14.60;99.90
23089;DHT22;11713;48.506;8.966;2023-08-06T07:22:45;14.60;99.90
23089;DHT22;11713;48.506;8.966;2023-08-06T07:25:11;14.70;99.90
23089;DHT22;11713;48.506;8.966;2023-08-06T07:27:37;14.70;99.90
23089;DHT22;11713;48.506;8.966;2023-08-06T07:30:03;14.70;99.90
23089;DHT22;11713;48.506;8.966;2023-08-06T07:32:33;14.80;99.90
23089;DHT22;11713;48.506;8.966;2023-08-06T07:35:01;14.90;99.90
23089;DHT22;11713;48.506;8.966;2023-08-06T07:37:30;15.00;99.90
23089;DHT22;11713;48.506;8.966;2023-08-06T07:39:57;15.00;99.90
23089;DHT22;11713;48.506;8.966;2023-08-06T07:42:24;15.00;99.90
23089;DHT22;11713;48.506;8.966;2023-08-06T07:44:55;15.00;99.90
23089;DHT22;11713;48.506;8.966;2023-08-06T07:47:21;15.00;99.90
23089;DHT22;11713;48.506;8.966;2023-08-06T07:49:47;15.00;99.90
23089;DHT22;11713;48.506;8.966;2023-08-06T07:52:22;15.00;99.90
23089;DHT22;11713;48.506;8.966;2023-08-06T07:54:48;15.10;99.90
23089;DHT22;11713;48.506;8.966;2023-08-06T07:57:14;15.20;99.90
23089;DHT22;11713;48.506;8.966;2023-08-06T07:59:41;15.20;99.90
23089;DHT22;11713;48.506;8.966;2023-08-06T08:02:06;15.20;99.90
23089;DHT22;11713;48.506;8.966;2023-08-06T08:04:32;15.10;99.90
23089;DHT22;11713;48.506;8.966;2023-08-06T08:06:58;15.00;99.90
23089;DHT22;11713;48.506;8.966;2023-08-06T08:09:24;15.00;99.90
23089;DHT22;11713;48.506;8.966;2023-08-06T08:11:50;14.90;99.90
23089;DHT22;11713;48.506;8.966;2023-08-06T08:14:16;14.80;99.90
23089;DHT22;11713;48.506;8.966;2023-08-06T08:16:42;14.80;99.90
23089;DHT22;11713;48.506;8.966;2023-08-06T08:19:07;14.80;99.90
23089;DHT22;11713;48.506;8.966;2023-08-06T08:21:33;14.80;99.90
23089;DHT22;11713;48.506;8.966;2023-08-06T08:24:00;14.80;99.90
23089;DHT22;11713;48.506;8.966;2023-08-06T08:26:26;14.80;99.90
23089;DHT22;11713;48.506;8.966;2023-08-06T08:28:55;14.90;99.90
23089;DHT22;11713;48.506;8.966;2023-08-06T08:31:22;15.00;99.90
23089;DHT22;11713;48.506;8.966;2023-08-06T08:33:48;15.00;99.90
23089;DHT22;11713;48.506;8.966;2023-08-06T08:36:14;15.20;99.90
23089;DHT22;11713;48.506;8.966;2023-08-06T08:38:40;15.20;99.90
23089;DHT22;11713;48.506;8.966;2023-08-06T08:41:13;15.30;99.90
23089;DHT22;11713;48.506;8.966;2023-08-06T08:43:43;15.20;99.90
23089;DHT22;11713;48.506;8.966;2023-08-06T08:46:12;15.30;99.90
23089;DHT22;11713;48.506;8.966;2023-08-06T08:48:39;15.30;99.90
23089;DHT22;11713;48.506;8.966;2023-08-06T08:51:06;15.20;99.90
23089;DHT22;11713;48.506;8.966;2023-08-06T08:53:35;15.20;99.90
23089;DHT22;11713;48.506;8.966;2023-08-06T08:56:05;15.30;99.90
23089;DHT22;11713;48.506;8.966;2023-08-06T08:58:32;15.30;99.90
23089;DHT22;11713;48.506;8.966;2023-08-06T09:00:58;15.30;99.90
23089;DHT22;11713;48.506;8.966;2023-08-06T09:03:24;15.30;99.90
23089;DHT22;11713;48.506;8.966;2023-08-06T09:05:53;15.30;99.90
23089;DHT22;11713;48.506;8.966;2023-08-06T09:08:23;15.40;99.90
23089;DHT22;11713;48.506;8.966;2023-08-06T09:10:50;15.50;99.90
23089;DHT22;11713;48.506;8.966;2023-08-06T09:13:17;15.60;99.90
23089;DHT22;11713;48.506;8.966;2023-08-06T09:15:45;15.60;99.90
23089;DHT22;11713;48.506;8.966;2023-08-06T09:18:12;15.60;99.90
23089;DHT22;11713;48.506;8.966;2023-08-06T09:20:41;15.70;99.90
23089;DHT22;11713;48.506;8.966;2023-08-06T09:23:10;15.90;99.90
23089;DHT22;11713;48.506;8.966;2023-08-06T09:25:38;16.00;99.90
23089;DHT22;11713;48.506;8.966;2023-08-06T09:28:07;16.10;99.90
23089;DHT22;11713;48.506;8.966;2023-08-06T09:30:35;16.10;99.90
23089;DHT22;11713;48.506;8.966;2023-08-06T09:33:01;16.00;99.90
23089;DHT22;11713;48.506;8.966;2023-08-06T09:35:31;15.80;99.90
23089;DHT22;11713;48.506;8.966;2023-08-06T09:38:07;15.70;99.90
23089;DHT22;11713;48.506;8.966;2023-08-06T09:40:34;15.50;99.90
23089;DHT22;11713;48.506;8.966;2023-08-06T09:43:00;15.30;99.90
23089;DHT22;11713;48.506;8.966;2023-08-06T09:48:09;15.30;99.90
23089;DHT22;11713;48.506;8.966;2023-08-06T09:50:39;15.30;99.90
23089;DHT22;11713;48.506;8.966;2023-08-06T09:53:07;15.30;99.90
23089;DHT22;11713;48.506;8.966;2023-08-06T09:55:36;15.30;99.90
23089;DHT22;11713;48.506;8.966;2023-08-06T09:58:05;15.10;99.90
23089;DHT22;11713;48.506;8.966;2023-08-06T10:00:33;15.10;99.90
23089;DHT22;11713;48.506;8.966;2023-08-06T10:03:00;15.10;99.90
23089;DHT22;11713;48.506;8.966;2023-08-06T10:05:31;15.00;99.90
23089;DHT22;11713;48.506;8.966;2023-08-06T10:07:59;15.00;99.90
23089;DHT22;11713;48.506;8.966;2023-08-06T10:10:28;15.00;99.90
23089;DHT22;11713;48.506;8.966;2023-08-06T10:12:57;14.90;99.90
23089;DHT22;11713;48.506;8.966;2023-08-06T10:15:26;14.90;99.90
23089;DHT22;11713;48.506;8.966;2023-08-06T10:17:56;14.90;99.90
23089;DHT22;11713;48.506;8.966;2023-08-06T10:20:24;15.00;99.90
23089;DHT22;11713;48.506;8.966;2023-08-06T10:23:05;15.10;99.90
23089;DHT22;11713;48.506;8.966;2023-08-06T10:25:35;15.20;99.90
23089;DHT22;11713;48.506;8.966;2023-08-06T10:28:07;15.20;99.90
23089;DHT22;11713;48.506;8.966;2023-08-06T10:30:44;15.30;99.90
23089;DHT22;11713;48.506;8.966;2023-08-06T10:33:12;15.30;99.90
23089;DHT22;11713;48.506;8.966;2023-08-06T10:35:48;15.40;99.90
23089;DHT22;11713;48.506;8.966;2023-08-06T10:38:20;15.30;99.90
23089;DHT22;11713;48.506;8.966;2023-08-06T10:43:30;15.30;99.90
23089;DHT22;11713;48.506;8.966;2023-08-06T10:46:00;15.30;99.90
23089;DHT22;11713;48.506;8.966;2023-08-06T10:51:14;15.30;99.90
23089;DHT22;11713;48.506;8.966;2023-08-06T10:53:48;15.30;99.90
23089;DHT22;11713;48.506;8.966;2023-08-06T10:56:14;15.30;99.90
23089;DHT22;11713;48.506;8.966;2023-08-06T10:58:41;15.30;99.90
23089;DHT22;11713;48.506;8.966;2023-08-06T11:01:10;15.30;99.90
23089;DHT22;11713;48.506;8.966;2023-08-06T11:03:42;15.10;99.90
23089;DHT22;11713;48.506;8.966;2023-08-06T11:06:08;15.10;99.90
23089;DHT22;11713;48.506;8.966;2023-08-06T11:08:36;15.10;99.90
23089;DHT22;11713;48.506;8.966;2023-08-06T11:11:13;15.10;99.90
23089;DHT22;11713;48.506;8.966;2023-08-06T11:13:40;15.00;99.90
23089;DHT22;11713;48.506;8.966;2023-08-06T11:16:06;15.00;99.90
23089;DHT22;11713;48.506;8.966;2023-08-06T11:18:33;15.10;99.90
23089;DHT22;11713;48.506;8.966;2023-08-06T11:21:00;15.10;99.90
23089;DHT22;11713;48.506;8.966;2023-08-06T11:23:30;15.10;99.90
23089;DHT22;11713;48.506;8.966;2023-08-06T11:25:59;15.20;99.90
23089;DHT22;11713;48.506;8.966;2023-08-06T11:28:25;15.20;99.90
23089;DHT22;11713;48.506;8.966;2023-08-06T11:30:54;15.20;99.90
23089;DHT22;11713;48.506;8.966;2023-08-06T11:33:25;15.20;99.90
23089;DHT22;11713;48.506;8.966;2023-08-06T11:35:54;15.20;99.90
23089;DHT22;11713;48.506;8.966;2023-08-06T11:38:22;15.30;99.90
23089;DHT22;11713;48.506;8.966;2023-08-06T11:40:53;15.30;99.90
23089;DHT22;11713;48.506;8.966;2023-08-06T11:43:21;15.50;99.90
23089;DHT22;11713;48.506;8.966;2023-08-06T11:45:51;15.60;99.90
23089;DHT22;11713;48.506;8.966;2023-08-06T11:48:19;15.70;99.90
23089;DHT22;11713;48.506;8.966;2023-08-06T11:50:48;15.70;99.90
23089;DHT22;11713;48.506;8.966;2023-08-06T11:53:14;15.80;99.90
23089;DHT22;11713;48.506;8.966;2023-08-06T11:55:41;15.80;99.90
23089;DHT22;11713;48.506;8.966;2023-08-06T11:58:07;15.90;99.90
23089;DHT22;11713;48.506;8.966;2023-08-06T12:00:33;15.80;99.90
23089;DHT22;11713;48.506;8.966;2023-08-06T12:02:59;15.90;99.90
23089;DHT22;11713;48.506;8.966;2023-08-06T12:05:32;15.90;99.90
23089;DHT22;11713;48.506;8.966;2023-08-06T12:08:01;15.90;99.90
23089;DHT22;11713;48.506;8.966;2023-08-06T12:10:29;15.80;99.90
23089;DHT22;11713;48.506;8.966;2023-08-06T12:12:56;15.70;99.90
23089;DHT22;11713;48.506;8.966;2023-08-06T12:15:23;15.70;99.90
23089;DHT22;11713;48.506;8.966;2023-08-06T12:17:49;15.70;99.90
23089;DHT22;11713;48.506;8.966;2023-08-06T12:20:15;15.80;99.90
23089;DHT22;11713;48.506;8.966;2023-08-06T12:22:41;15.80;99.90
23089;DHT22;11713;48.506;8.966;2023-08-06T12:25:09;15.90;99.90
23089;DHT22;11713;48.506;8.966;2023-08-06T12:27:43;15.90;99.90
23089;DHT22;11713;48.506;8.966;2023-08-06T12:30:13;15.90;99.90
23089;DHT22;11713;48.506;8.966;2023-08-06T12:32:39;16.00;99.90
23089;DHT22;11713;48.506;8.966;2023-08-06T12:35:05;16.00;99.90
23089;DHT22;11713;48.506;8.966;2023-08-06T12:37:33;16.00;99.90
23089;DHT22;11713;48.506;8.966;2023-08-06T12:39:59;16.00;99.90
23089;DHT22;11713;48.506;8.966;2023-08-06T12:42:25;15.90;99.90
23089;DHT22;11713;48.506;8.966;2023-08-06T12:44:52;15.90;99.90
23089;DHT22;11713;48.506;8.966;2023-08-06T12:47:18;15.90;99.90
23089;DHT22;11713;48.506;8.966;2023-08-06T12:49:45;15.90;99.90
23089;DHT22;11713;48.506;8.966;2023-08-06T12:52:12;15.90;99.90
23089;DHT22;11713;48.506;8.966;2023-08-06T12:54:45;15.80;99.90
23089;DHT22;11713;48.506;8.966;2023-08-06T12:57:13;15.70;99.90
23089;DHT22;11713;48.506;8.966;2023-08-06T12:59:40;15.80;99.90
23089;DHT22;11713;48.506;8.966;2023-08-06T13:02:07;15.80;99.90
23089;DHT22;11713;48.506;8.966;2023-08-06T13:04:33;15.90;99.90
23089;DHT22;11713;48.506;8.966;2023-08-06T13:06:59;16.00;99.90
23089;DHT22;11713;48.506;8.966;2023-08-06T13:09:25;16.00;99.90
23089;DHT22;11713;48.506;8.966;2023-08-06T13:11:53;16.10;99.90
23089;DHT22;11713;48.506;8.966;2023-08-06T13:14:19;16.20;99.90
23089;DHT22;11713;48.506;8.966;2023-08-06T13:16:44;16.30;99.90
23089;DHT22;11713;48.506;8.966;2023-08-06T13:19:11;16.30;99.90
23089;DHT22;11713;48.506;8.966;2023-08-06T13:24:08;16.40;99.90
23089;DHT22;11713;48.506;8.966;2023-08-06T13:26:34;16.40;99.90
23089;DHT22;11713;48.506;8.966;2023-08-06T13:29:00;16.40;99.90
23089;DHT22;11713;48.506;8.966;2023-08-06T13:31:27;16.30;99.90
23089;DHT22;11713;48.506;8.966;2023-08-06T13:33:54;16.30;99.90
23089;DHT22;11713;48.506;8.966;2023-08-06T13:36:22;16.30;99.90
23089;DHT22;11713;48.506;8.966;2023-08-06T13:38:48;16.10;99.90
23089;DHT22;11713;48.506;8.966;2023-08-06T13:41:14;16.00;99.90
23089;DHT22;11713;48.506;8.966;2023-08-06T13:43:40;15.90;99.90
23089;DHT22;11713;48.506;8.966;2023-08-06T13:46:06;15.90;99.90
23089;DHT22;11713;48.506;8.966;2023-08-06T13:48:32;15.90;99.90
23089;DHT22;11713;48.506;8.966;2023-08-06T13:50:58;15.90;99.90
23089;DHT22;11713;48.506;8.966;2023-08-06T13:53:24;15.80;99.90
23089;DHT22;11713;48.506;8.966;2023-08-06T13:55:55;16.00;99.90
23089;DHT22;11713;48.506;8.966;2023-08-06T13:58:22;16.40;99.90
23089;DHT22;11713;48.506;8.966;2023-08-06T14:00:50;16.60;99.90
23089;DHT22;11713;48.506;8.966;2023-08-06T14:03:18;16.80;99.90
23089;DHT22;11713;48.506;8.966;2023-08-06T14:05:44;17.00;99.90
23089;DHT22;11713;48.506;8.966;2023-08-06T14:08:10;17.10;99.90
23089;DHT22;11713;48.506;8.966;2023-08-06T14:10:36;17.20;99.90
23089;DHT22;11713;48.506;8.966;2023-08-06T14:13:02;17.20;99.90
23089;DHT22;11713;48.506;8.966;2023-08-06T14:15:27;17.10;99.90
23089;DHT22;11713;48.506;8.966;2023-08-06T14:17:53;17.00;99.90
23089;DHT22;11713;48.506;8.966;2023-08-06T14:20:19;16.80;99.90
23089;DHT22;11713;48.506;8.966;2023-08-06T14:22:45;16.70;99.90
23089;DHT22;11713;48.506;8.966;2023-08-06T14:25:11;16.50;99.90
23089;DHT22;11713;48.506;8.966;2023-08-06T14:27:37;16.30;99.90
23089;DHT22;11713;48.506;8.966;2023-08-06T14:30:06;16.30;99.90
23089;DHT22;11713;48.506;8.966;2023-08-06T14:32:32;16.20;99.90
23089;DHT22;11713;48.506;8.966;2023-08-06T14:34:58;16.20;99.90
23089;DHT22;11713;48.506;8.966;2023-08-06T14:37:24;16.10;99.90
23089;DHT22;11713;48.506;8.966;2023-08-06T14:39:52;16.00;99.90
23089;DHT22;11713;48.506;8.966;2023-08-06T14:42:26;16.00;99.90
23089;DHT22;11713;48.506;8.966;2023-08-06T14:44:52;15.90;99.90
23089;DHT22;11713;48.506;8.966;2023-08-06T14:47:18;15.70;99.90
23089;DHT22;11713;48.506;8.966;2023-08-06T14:49:44;15.80;99.90
23089;DHT22;11713;48.506;8.966;2023-08-06T14:52:10;15.90;99.90
23089;DHT22;11713;48.506;8.966;2023-08-06T14:54:36;16.00;99.90
23089;DHT22;11713;48.506;8.966;2023-08-06T14:57:02;16.00;99.90
23089;DHT22;11713;48.506;8.966;2023-08-06T14:59:28;16.20;99.90
23089;DHT22;11713;48.506;8.966;2023-08-06T15:01:53;16.30;99.90
23089;DHT22;11713;48.506;8.966;2023-08-06T15:04:19;16.20;99.90
23089;DHT22;11713;48.506;8.966;2023-08-06T15:06:45;16.30;99.90
23089;DHT22;11713;48.506;8.966;2023-08-06T15:09:11;16.40;99.90
23089;DHT22;11713;48.506;8.966;2023-08-06T15:11:37;16.60;99.90
23089;DHT22;11713;48.506;8.966;2023-08-06T15:14:03;16.80;99.90
23089;DHT22;11713;48.506;8.966;2023-08-06T15:16:33;16.80;99.90
23089;DHT22;11713;48.506;8.966;2023-08-06T15:19:00;16.90;99.90
23089;DHT22;11713;48.506;8.966;2023-08-06T15:21:27;16.90;99.90
23089;DHT22;11713;48.506;8.966;2023-08-06T15:23:53;16.90;99.90
23089;DHT22;11713;48.506;8.966;2023-08-06T15:26:19;17.00;99.90
23089;DHT22;11713;48.506;8.966;2023-08-06T15:28:45;17.00;99.90
23089;DHT22;11713;48.506;8.966;2023-08-06T15:31:12;17.20;99.90
23089;DHT22;11713;48.506;8.966;2023-08-06T15:33:38;17.40;99.90
23089;DHT22;11713;48.506;8.966;2023-08-06T15:36:04;17.60;99.90
23089;DHT22;11713;48.506;8.966;2023-08-06T15:38:30;17.60;99.90
23089;DHT22;11713;48.506;8.966;2023-08-06T15:40:56;17.50;99.90
23089;DHT22;11713;48.506;8.966;2023-08-06T15:43:22;17.30;99.90